Suez Rajan — V7WJ9 — position and weather

sailwx.info

Track history (hours):
 
Tides and Currents Weather Stations Pressure Air Temp Water Temp Dewpoint Dewpoint Depression Visibility Wind Speed Wind Dir Waves Ship Positions

Suez Rajan

Last reported at 2017-Nov-10 00:46 UTC. Time now 2017-Nov-17 17:55 UTC.
Position N 37°25' E 025°55'.

Length 274 m; draft 15.5 m.

Type: Tanker. MMSI: 538004319.

Date/timePositionNaut miles runAvg speedWind from/ knotsBaromVisibWave heightAir tempDewpointWater temp
2017-Nov-10 00:46N 37°25' E 025°55'313.1
2017-Nov-10 00:30N 37°27' E 025°52'612.4
2017-Nov-10 00:00N 37°31' E 025°46'713.4
2017-Nov-09 23:30N 37°38' E 025°44'713.5
2017-Nov-09 23:00N 37°44' E 025°41'713.4
2017-Nov-09 22:30N 37°50' E 025°38'  
2017-Nov-04 09:05N 44°29' E 037°32'114.1
2017-Nov-04 09:01N 44°29' E 037°34'713.8
2017-Nov-04 08:30N 44°33' E 037°42'3 6.4
2017-Nov-04 08:00N 44°36' E 037°43'0 0.4
2017-Nov-04 07:31N 44°36' E 037°43'0 0.4
2017-Nov-04 07:00N 44°36' E 037°43'1 1.8
2017-Nov-04 06:30N 44°36' E 037°42'1 1.9
2017-Nov-04 06:00N 44°36' E 037°41'1 1.8
2017-Nov-04 05:30N 44°36' E 037°39'1 1.8
2017-Nov-04 05:00N 44°36' E 037°38'2 3.1
2017-Nov-04 04:30N 44°38' E 037°38'1 0.0
2017-Nov-03 09:31N 44°38' E 037°38'0 0.1
2017-Nov-03 09:28N 44°38' E 037°38'0 1.0
2017-Nov-03 09:00N 44°38' E 037°37'2 4.9
2017-Nov-03 08:30N 44°36' E 037°38'1 1.7
2017-Nov-03 08:00N 44°36' E 037°38'1 2.2
2017-Nov-03 07:30N 44°35' E 037°38'1 1.9
2017-Nov-03 07:00N 44°35' E 037°37'1 2.5
2017-Nov-03 06:30N 44°34' E 037°36'1 1.4
2017-Nov-03 06:00N 44°34' E 037°35'0 0.9
2017-Nov-03 05:30N 44°34' E 037°34'3 5.3
2017-Nov-03 05:00N 44°35' E 037°37'1 1.4
2017-Nov-03 04:30N 44°34' E 037°38'1 1.4
2017-Nov-03 04:00N 44°34' E 037°38'1 1.7
2017-Nov-03 03:30N 44°34' E 037°39'1 1.8
2017-Nov-03 03:00N 44°34' E 037°38'1 1.7
2017-Nov-03 02:30N 44°34' E 037°37'1 2.0
2017-Nov-03 02:00N 44°34' E 037°36'1 1.1
2017-Nov-03 01:30N 44°35' E 037°36'1 1.8
2017-Nov-03 01:00N 44°34' E 037°36'1 2.3
2017-Nov-03 00:30N 44°33' E 037°37'2 4.3
2017-Nov-03 00:00N 44°35' E 037°39'1 1.7
2017-Nov-02 23:30N 44°34' E 037°38'1 2.2
2017-Nov-02 23:00N 44°33' E 037°38'0 0.9
2017-Nov-02 22:30N 44°33' E 037°38'1 1.9
2017-Nov-02 22:00N 44°33' E 037°37'1 2.4
2017-Nov-02 21:30N 44°34' E 037°36'1 1.1
2017-Nov-02 21:00N 44°35' E 037°37'1 2.3
2017-Nov-02 20:30N 44°34' E 037°36'1 1.0
2017-Nov-02 20:00N 44°34' E 037°37'3 6.1
2017-Nov-02 19:30N 44°34' E 037°41'1 1.8
2017-Nov-02 19:00N 44°33' E 037°41'1 2.0
2017-Nov-02 18:30N 44°33' E 037°40'1 1.9
2017-Nov-02 18:00N 44°33' E 037°38'1 1.9
2017-Nov-02 17:30N 44°33' E 037°37'1 2.0
2017-Nov-02 17:00N 44°32' E 037°36'0 0.6
2017-Nov-02 16:29N 44°33' E 037°35'4 7.6
2017-Nov-02 16:00N 44°32' E 037°40'2 3.8
2017-Nov-02 15:30N 44°32' E 037°43'1 2.4
2017-Nov-02 15:00N 44°32' E 037°41'1 2.3
2017-Nov-02 14:30N 44°32' E 037°40'1 1.5
2017-Nov-02 14:00N 44°33' E 037°39'3 6.3
2017-Nov-02 13:30N 44°35' E 037°42'2 3.3
2017-Nov-02 13:00N 44°36' E 037°40'3 5.2
2017-Nov-02 12:30N 44°33' E 037°42'1 2.8
2017-Nov-02 12:00N 44°33' E 037°40'1 2.7
2017-Nov-02 11:30N 44°33' E 037°38'1 2.6
2017-Nov-02 11:00N 44°33' E 037°36'1 2.7
2017-Nov-02 10:30N 44°33' E 037°34'2 3.4
2017-Nov-02 10:00N 44°33' E 037°37'510.1
2017-Nov-02 09:30N 44°32' E 037°43'4 8.7
2017-Nov-02 09:00N 44°31' E 037°50'1 2.9
2017-Nov-02 08:30N 44°32' E 037°48'1 2.9
2017-Nov-02 08:00N 44°32' E 037°46'1 0.3
2017-Nov-02 04:41N 44°32' E 037°47'1 8.5
2017-Nov-02 04:30N 44°32' E 037°49'1 1.0
2017-Nov-02 04:00N 44°31' E 037°49'1 2.4
2017-Nov-02 03:30N 44°32' E 037°47'1 2.4
2017-Nov-02 03:00N 44°33' E 037°46'1 2.2
2017-Nov-02 02:30N 44°33' E 037°44'1 1.8
2017-Nov-02 02:00N 44°33' E 037°43'1 1.8
2017-Nov-02 01:30N 44°33' E 037°42'1 2.0
2017-Nov-02 01:00N 44°33' E 037°40'1 2.3
2017-Nov-02 00:30N 44°33' E 037°39'1 2.0
2017-Nov-02 00:00N 44°32' E 037°40'510.1
2017-Nov-01 23:30N 44°31' E 037°47'5 9.1
2017-Nov-01 23:00N 44°31' E 037°53'1 2.1
2017-Nov-01 22:30N 44°30' E 037°52'1 2.1
2017-Nov-01 22:00N 44°30' E 037°50'1 2.1
2017-Nov-01 21:30N 44°30' E 037°49'1 2.1
2017-Nov-01 21:00N 44°30' E 037°47'1 2.0
2017-Nov-01 20:30N 44°30' E 037°46'1 2.1
2017-Nov-01 20:00N 44°30' E 037°44'1 2.2
2017-Nov-01 19:30N 44°30' E 037°43'1 2.8
2017-Nov-01 19:00N 44°30' E 037°41'1 2.7
2017-Nov-01 18:30N 44°31' E 037°39'6 0.4
2017-Nov-01 02:00N 44°32' E 037°48'1 2.7
2017-Nov-01 01:30N 44°31' E 037°46'2 3.7
2017-Nov-01 01:00N 44°31' E 037°44'2 3.2
2017-Nov-01 00:30N 44°31' E 037°42'2 3.5
2017-Nov-01 00:00N 44°31' E 037°39'1 2.9
2017-Oct-31 23:30N 44°31' E 037°37'2 3.5
2017-Oct-31 23:00N 44°31' E 037°35'1 2.6
2017-Oct-31 22:30N 44°32' E 037°33'1 2.2
2017-Oct-31 21:59N 44°31' E 037°31'2 3.6
2017-Oct-31 21:30N 44°31' E 037°34'2 3.4
2017-Oct-31 21:00N 44°31' E 037°36'2 3.2
2017-Oct-31 20:30N 44°31' E 037°38'2 3.3
2017-Oct-31 20:00N 44°32' E 037°40'1 2.0
2017-Oct-31 19:30N 44°31' E 037°42'1 2.6
2017-Oct-31 19:00N 44°31' E 037°44'2 4.1
2017-Oct-31 18:30N 44°32' E 037°46'1 3.0
2017-Oct-31 18:01N 44°31' E 037°48'2 4.0
2017-Oct-31 17:30N 44°31' E 037°45'2 3.9
2017-Oct-31 17:00N 44°31' E 037°42'2 4.9
2017-Oct-31 16:30N 44°32' E 037°39'3 5.1
2017-Oct-31 16:00N 44°32' E 037°36'0 0.9
2017-Oct-31 15:30N 44°33' E 037°35'1 2.3
2017-Oct-31 15:00N 44°32' E 037°37'1 2.4
2017-Oct-31 14:30N 44°32' E 037°39'1 2.8
2017-Oct-31 14:00N 44°33' E 037°41'1 2.5
2017-Oct-31 13:30N 44°33' E 037°42'1 2.7
2017-Oct-31 13:00N 44°33' E 037°44'1 1.5
2017-Oct-31 12:30N 44°32' E 037°45'1 1.8
2017-Oct-31 12:00N 44°32' E 037°47'1 2.7
2017-Oct-31 11:30N 44°32' E 037°48'1 2.3
2017-Oct-31 11:00N 44°32' E 037°50'1 2.4
2017-Oct-31 10:30N 44°32' E 037°48'2 3.6
2017-Oct-31 10:00N 44°32' E 037°46'2 3.7
2017-Oct-31 09:30N 44°31' E 037°43'2 3.4
2017-Oct-31 09:00N 44°31' E 037°41'2 3.2
2017-Oct-31 08:30N 44°31' E 037°39'2 3.8
2017-Oct-31 08:00N 44°31' E 037°36'1 2.0
2017-Oct-31 07:30N 44°31' E 037°35'1 2.3
2017-Oct-31 07:00N 44°31' E 037°37'1 2.5
2017-Oct-31 06:30N 44°32' E 037°38'1 2.5
2017-Oct-31 06:00N 44°32' E 037°40'1 2.7
2017-Oct-31 05:30N 44°32' E 037°42'2 3.9
2017-Oct-31 05:00N 44°32' E 037°45'1 2.2
2017-Oct-31 04:30N 44°32' E 037°44'2 4.0
2017-Oct-31 04:00N 44°32' E 037°41'2 3.7
2017-Oct-31 03:30N 44°32' E 037°38'1 2.6
2017-Oct-31 03:00N 44°32' E 037°36'1 2.2
2017-Oct-31 02:30N 44°32' E 037°38'1 2.5
2017-Oct-31 02:00N 44°31' E 037°39'1 2.2
2017-Oct-31 01:30N 44°31' E 037°41'1 2.1
2017-Oct-31 01:00N 44°31' E 037°42'  
Track history (hours):
 
Tides and Currents Weather Stations Pressure Air Temp Water Temp Dewpoint Dewpoint Depression Visibility Wind Speed Wind Dir Waves Ship Positions

Suez Rajan

Last reported at 2017-Nov-10 00:46 UTC. Time now 2017-Nov-17 17:55 UTC.
Position N 37°25' E 025°55'.

Length 274 m; draft 15.5 m.

Type: Tanker. MMSI: 538004319.

Date/timePositionNaut miles runAvg speedWind from/ knotsBaromVisibWave heightAir tempDewpointWater temp
2017-Nov-10 00:46N 37°25' E 025°55'313.1
2017-Nov-10 00:30N 37°27' E 025°52'612.4
2017-Nov-10 00:00N 37°31' E 025°46'713.4
2017-Nov-09 23:30N 37°38' E 025°44'713.5
2017-Nov-09 23:00N 37°44' E 025°41'713.4
2017-Nov-09 22:30N 37°50' E 025°38'  
2017-Nov-04 09:05N 44°29' E 037°32'114.1
2017-Nov-04 09:01N 44°29' E 037°34'713.8
2017-Nov-04 08:30N 44°33' E 037°42'3 6.4
2017-Nov-04 08:00N 44°36' E 037°43'0 0.4
2017-Nov-04 07:31N 44°36' E 037°43'0 0.4
2017-Nov-04 07:00N 44°36' E 037°43'1 1.8
2017-Nov-04 06:30N 44°36' E 037°42'1 1.9
2017-Nov-04 06:00N 44°36' E 037°41'1 1.8
2017-Nov-04 05:30N 44°36' E 037°39'1 1.8
2017-Nov-04 05:00N 44°36' E 037°38'2 3.1
2017-Nov-04 04:30N 44°38' E 037°38'1 0.0
2017-Nov-03 09:31N 44°38' E 037°38'0 0.1
2017-Nov-03 09:28N 44°38' E 037°38'0 1.0
2017-Nov-03 09:00N 44°38' E 037°37'2 4.9
2017-Nov-03 08:30N 44°36' E 037°38'1 1.7
2017-Nov-03 08:00N 44°36' E 037°38'1 2.2
2017-Nov-03 07:30N 44°35' E 037°38'1 1.9
2017-Nov-03 07:00N 44°35' E 037°37'1 2.5
2017-Nov-03 06:30N 44°34' E 037°36'1 1.4
2017-Nov-03 06:00N 44°34' E 037°35'0 0.9
2017-Nov-03 05:30N 44°34' E 037°34'3 5.3
2017-Nov-03 05:00N 44°35' E 037°37'1 1.4
2017-Nov-03 04:30N 44°34' E 037°38'1 1.4
2017-Nov-03 04:00N 44°34' E 037°38'1 1.7
2017-Nov-03 03:30N 44°34' E 037°39'1 1.8
2017-Nov-03 03:00N 44°34' E 037°38'1 1.7
2017-Nov-03 02:30N 44°34' E 037°37'1 2.0
2017-Nov-03 02:00N 44°34' E 037°36'1 1.1
2017-Nov-03 01:30N 44°35' E 037°36'1 1.8
2017-Nov-03 01:00N 44°34' E 037°36'1 2.3
2017-Nov-03 00:30N 44°33' E 037°37'2 4.3
2017-Nov-03 00:00N 44°35' E 037°39'1 1.7
2017-Nov-02 23:30N 44°34' E 037°38'1 2.2
2017-Nov-02 23:00N 44°33' E 037°38'0 0.9
2017-Nov-02 22:30N 44°33' E 037°38'1 1.9
2017-Nov-02 22:00N 44°33' E 037°37'1 2.4
2017-Nov-02 21:30N 44°34' E 037°36'1 1.1
2017-Nov-02 21:00N 44°35' E 037°37'1 2.3
2017-Nov-02 20:30N 44°34' E 037°36'1 1.0
2017-Nov-02 20:00N 44°34' E 037°37'3 6.1
2017-Nov-02 19:30N 44°34' E 037°41'1 1.8
2017-Nov-02 19:00N 44°33' E 037°41'1 2.0
2017-Nov-02 18:30N 44°33' E 037°40'1 1.9
2017-Nov-02 18:00N 44°33' E 037°38'1 1.9
2017-Nov-02 17:30N 44°33' E 037°37'1 2.0
2017-Nov-02 17:00N 44°32' E 037°36'0 0.6
2017-Nov-02 16:29N 44°33' E 037°35'4 7.6
2017-Nov-02 16:00N 44°32' E 037°40'2 3.8
2017-Nov-02 15:30N 44°32' E 037°43'1 2.4
2017-Nov-02 15:00N 44°32' E 037°41'1 2.3
2017-Nov-02 14:30N 44°32' E 037°40'1 1.5
2017-Nov-02 14:00N 44°33' E 037°39'3 6.3
2017-Nov-02 13:30N 44°35' E 037°42'2 3.3
2017-Nov-02 13:00N 44°36' E 037°40'3 5.2
2017-Nov-02 12:30N 44°33' E 037°42'1 2.8
2017-Nov-02 12:00N 44°33' E 037°40'1 2.7
2017-Nov-02 11:30N 44°33' E 037°38'1 2.6
2017-Nov-02 11:00N 44°33' E 037°36'1 2.7
2017-Nov-02 10:30N 44°33' E 037°34'2 3.4
2017-Nov-02 10:00N 44°33' E 037°37'510.1
2017-Nov-02 09:30N 44°32' E 037°43'4 8.7
2017-Nov-02 09:00N 44°31' E 037°50'1 2.9
2017-Nov-02 08:30N 44°32' E 037°48'1 2.9
2017-Nov-02 08:00N 44°32' E 037°46'1 0.3
2017-Nov-02 04:41N 44°32' E 037°47'1 8.5
2017-Nov-02 04:30N 44°32' E 037°49'1 1.0
2017-Nov-02 04:00N 44°31' E 037°49'1 2.4
2017-Nov-02 03:30N 44°32' E 037°47'1 2.4
2017-Nov-02 03:00N 44°33' E 037°46'1 2.2
2017-Nov-02 02:30N 44°33' E 037°44'1 1.8
2017-Nov-02 02:00N 44°33' E 037°43'1 1.8
2017-Nov-02 01:30N 44°33' E 037°42'1 2.0
2017-Nov-02 01:00N 44°33' E 037°40'1 2.3
2017-Nov-02 00:30N 44°33' E 037°39'1 2.0
2017-Nov-02 00:00N 44°32' E 037°40'510.1
2017-Nov-01 23:30N 44°31' E 037°47'5 9.1
2017-Nov-01 23:00N 44°31' E 037°53'1 2.1
2017-Nov-01 22:30N 44°30' E 037°52'1 2.1
2017-Nov-01 22:00N 44°30' E 037°50'1 2.1
2017-Nov-01 21:30N 44°30' E 037°49'1 2.1
2017-Nov-01 21:00N 44°30' E 037°47'1 2.0
2017-Nov-01 20:30N 44°30' E 037°46'1 2.1
2017-Nov-01 20:00N 44°30' E 037°44'1 2.2
2017-Nov-01 19:30N 44°30' E 037°43'1 2.8
2017-Nov-01 19:00N 44°30' E 037°41'1 2.7
2017-Nov-01 18:30N 44°31' E 037°39'6 0.4
2017-Nov-01 02:00N 44°32' E 037°48'1 2.7
2017-Nov-01 01:30N 44°31' E 037°46'2 3.7
2017-Nov-01 01:00N 44°31' E 037°44'2 3.2
2017-Nov-01 00:30N 44°31' E 037°42'2 3.5
2017-Nov-01 00:00N 44°31' E 037°39'1 2.9
2017-Oct-31 23:30N 44°31' E 037°37'2 3.5
2017-Oct-31 23:00N 44°31' E 037°35'1 2.6
2017-Oct-31 22:30N 44°32' E 037°33'1 2.2
2017-Oct-31 21:59N 44°31' E 037°31'2 3.6
2017-Oct-31 21:30N 44°31' E 037°34'2 3.4
2017-Oct-31 21:00N 44°31' E 037°36'2 3.2
2017-Oct-31 20:30N 44°31' E 037°38'2 3.3
2017-Oct-31 20:00N 44°32' E 037°40'1 2.0
2017-Oct-31 19:30N 44°31' E 037°42'1 2.6
2017-Oct-31 19:00N 44°31' E 037°44'2 4.1
2017-Oct-31 18:30N 44°32' E 037°46'1 3.0
2017-Oct-31 18:01N 44°31' E 037°48'2 4.0
2017-Oct-31 17:30N 44°31' E 037°45'2 3.9
2017-Oct-31 17:00N 44°31' E 037°42'2 4.9
2017-Oct-31 16:30N 44°32' E 037°39'3 5.1
2017-Oct-31 16:00N 44°32' E 037°36'0 0.9
2017-Oct-31 15:30N 44°33' E 037°35'1 2.3
2017-Oct-31 15:00N 44°32' E 037°37'1 2.4
2017-Oct-31 14:30N 44°32' E 037°39'1 2.8
2017-Oct-31 14:00N 44°33' E 037°41'1 2.5
2017-Oct-31 13:30N 44°33' E 037°42'1 2.7
2017-Oct-31 13:00N 44°33' E 037°44'1 1.5
2017-Oct-31 12:30N 44°32' E 037°45'1 1.8
2017-Oct-31 12:00N 44°32' E 037°47'1 2.7
2017-Oct-31 11:30N 44°32' E 037°48'1 2.3
2017-Oct-31 11:00N 44°32' E 037°50'1 2.4
2017-Oct-31 10:30N 44°32' E 037°48'2 3.6
2017-Oct-31 10:00N 44°32' E 037°46'2 3.7
2017-Oct-31 09:30N 44°31' E 037°43'2 3.4
2017-Oct-31 09:00N 44°31' E 037°41'2 3.2
2017-Oct-31 08:30N 44°31' E 037°39'2 3.8
2017-Oct-31 08:00N 44°31' E 037°36'1 2.0
2017-Oct-31 07:30N 44°31' E 037°35'1 2.3
2017-Oct-31 07:00N 44°31' E 037°37'1 2.5
2017-Oct-31 06:30N 44°32' E 037°38'1 2.5
2017-Oct-31 06:00N 44°32' E 037°40'1 2.7
2017-Oct-31 05:30N 44°32' E 037°42'2 3.9
2017-Oct-31 05:00N 44°32' E 037°45'1 2.2
2017-Oct-31 04:30N 44°32' E 037°44'2 4.0
2017-Oct-31 04:00N 44°32' E 037°41'2 3.7
2017-Oct-31 03:30N 44°32' E 037°38'1 2.6
2017-Oct-31 03:00N 44°32' E 037°36'1 2.2
2017-Oct-31 02:30N 44°32' E 037°38'1 2.5
2017-Oct-31 02:00N 44°31' E 037°39'1 2.2
2017-Oct-31 01:30N 44°31' E 037°41'1 2.1
2017-Oct-31 01:00N 44°31' E 037°42'  

Dump ship's entire track history